Time;durP1;ratioP1;P1;durP2;ratioP2;P2;SDS_P1;SDS_P2;PMS_P1;PMS_P2;Temp;Humidity;BMP_temperature;BMP_pressure;BME280_temperature;BME280_humidity;BME280_pressure;Samples;Min_cycle;Max_cycle;Signal;HPM_P1;HPM_P2
2023/05/05 00:01:01;;;;;;;9.77;2.17;;;;;;;;;;6244779;22;20008;-77
2023/05/05 00:03:26;;;;;;;13.18;2.60;;;;;;;;;;6271764;22;20006;-77
2023/05/05 00:05:54;;;;;;;6.70;2.67;;;;;;;;;;6270761;22;20078;-78
2023/05/05 00:08:20;;;;;;;6.38;2.42;;;;;;;;;;6271831;22;20428;-77
2023/05/05 00:10:47;;;;;;;5.95;2.17;;;;;;;;;;6271854;22;20078;-77
2023/05/05 00:13:13;;;;;;;8.00;2.35;;;;;;;;;;6271750;22;20007;-77
2023/05/05 00:15:44;;;;;;;7.80;2.33;;;;;;;;;;6271239;22;20012;-77
2023/05/05 00:18:10;;;;;;;5.30;2.35;;;;;;;;;;6271851;22;20462;-77
2023/05/05 00:20:36;;;;;;;7.88;2.40;;;;;;;;;;6271549;22;20003;-77
2023/05/05 00:23:02;;;;;;;6.30;2.15;;;;;;;;;;6270791;22;20000;-77
2023/05/05 00:25:28;;;;;;;6.43;2.40;;;;;;;;;;6271511;22;20338;-77
2023/05/05 00:27:54;;;;;;;6.50;2.40;;;;;;;;;;6271790;22;20018;-77
2023/05/05 00:30:19;;;;;;;8.60;2.47;;;;;;;;;;6271441;22;19995;-78
2023/05/05 00:32:47;;;;;;;7.60;2.40;;;;;;;;;;6271644;22;20010;-77
2023/05/05 00:35:12;;;;;;;7.32;2.28;;;;;;;;;;6271310;22;20014;-77
2023/05/05 00:37:38;;;;;;;6.45;2.45;;;;;;;;;;6270678;22;20011;-77
2023/05/05 00:40:04;;;;;;;8.85;2.70;;;;;;;;;;6271510;22;20004;-77
2023/05/05 00:42:40;;;;;;;7.63;2.40;;;;;;;;;;6271831;22;20010;-77
2023/05/05 00:45:05;;;;;;;7.57;2.50;;;;;;;;;;6271256;22;20347;-77
2023/05/05 00:47:31;;;;;;;8.40;2.17;;;;;;;;;;6271753;22;20071;-77
2023/05/05 00:49:57;;;;;;;9.18;2.40;;;;;;;;;;6271195;22;20010;-77
2023/05/05 00:52:23;;;;;;;15.05;2.50;;;;;;;;;;6270873;22;20055;-77
2023/05/05 00:54:48;;;;;;;7.88;2.42;;;;;;;;;;6270994;22;20069;-77
2023/05/05 00:57:14;;;;;;;7.00;2.53;;;;;;;;;;6271624;22;20004;-76
2023/05/05 00:59:39;;;;;;;5.10;2.28;;;;;;;;;;6271355;22;20003;-77
2023/05/05 01:02:05;;;;;;;6.10;2.33;;;;;;;;;;6271851;22;20000;-77
2023/05/05 01:04:30;;;;;;;8.20;2.30;;;;;;;;;;6244098;22;20007;-77
2023/05/05 01:07:21;;;;;;;9.18;2.28;;;;;;;;;;6243444;22;20363;-77
2023/05/05 01:10:08;;;;;;;7.35;1.92;;;;;;;;;;6270819;22;20039;-77
2023/05/05 01:12:42;;;;;;;5.85;2.03;;;;;;;;;;6271498;22;20007;-76
2023/05/05 01:15:25;;;;;;;6.70;2.00;;;;;;;;;;6270842;22;19999;-77
2023/05/05 01:18:21;;;;;;;5.40;2.22;;;;;;;;;;6271413;22;20038;-77
2023/05/05 01:21:09;;;;;;;6.15;1.90;;;;;;;;;;6271080;22;20007;-77
2023/05/05 01:23:53;;;;;;;4.30;1.90;;;;;;;;;;6270954;22;20011;-77
2023/05/05 01:26:56;;;;;;;8.25;2.40;;;;;;;;;;6243561;22;20363;-77
2023/05/05 01:29:47;;;;;;;5.38;2.00;;;;;;;;;;6244030;22;20015;-77
2023/05/05 01:32:15;;;;;;;6.53;1.98;;;;;;;;;;6271309;22;20320;-77
2023/05/05 01:34:58;;;;;;;5.97;2.10;;;;;;;;;;6270949;22;20022;-77
2023/05/05 01:37:29;;;;;;;5.15;2.08;;;;;;;;;;6270647;22;20012;-77
2023/05/05 01:39:58;;;;;;;5.80;2.03;;;;;;;;;;6270747;22;20049;-77
2023/05/05 01:42:25;;;;;;;6.28;2.03;;;;;;;;;;6270941;22;20382;-77
2023/05/05 01:44:52;;;;;;;4.32;1.88;;;;;;;;;;6243924;22;20042;-77
2023/05/05 01:47:20;;;;;;;7.20;1.83;;;;;;;;;;6271127;22;20430;-77
2023/05/05 01:49:46;;;;;;;6.22;2.10;;;;;;;;;;6271027;22;20328;-77
2023/05/05 01:52:16;;;;;;;6.10;2.00;;;;;;;;;;6270285;22;19999;-77
2023/05/05 01:54:43;;;;;;;4.78;1.85;;;;;;;;;;6270908;22;20004;-77
2023/05/05 01:57:10;;;;;;;6.65;1.90;;;;;;;;;;6270421;22;20493;-77
2023/05/05 01:59:38;;;;;;;5.97;1.80;;;;;;;;;;6243849;22;20004;-77
2023/05/05 02:02:06;;;;;;;6.85;1.80;;;;;;;;;;6270538;22;20034;-78
2023/05/05 02:04:32;;;;;;;4.03;1.92;;;;;;;;;;6243622;22;20452;-78
2023/05/05 02:07:00;;;;;;;3.97;1.80;;;;;;;;;;6242817;22;19999;-77
2023/05/05 02:09:28;;;;;;;5.78;1.60;;;;;;;;;;6270742;22;20550;-77
2023/05/05 02:11:55;;;;;;;5.43;1.80;;;;;;;;;;6243584;22;20007;-77
2023/05/05 02:14:24;;;;;;;5.60;1.77;;;;;;;;;;6270759;22;20004;-77
2023/05/05 02:16:51;;;;;;;6.97;1.70;;;;;;;;;;6270187;22;19999;-77
2023/05/05 02:19:18;;;;;;;4.53;1.50;;;;;;;;;;6270531;22;20011;-77
2023/05/05 02:21:44;;;;;;;8.70;1.90;;;;;;;;;;6242373;22;20042;-77
2023/05/05 02:24:09;;;;;;;5.10;1.85;;;;;;;;;;6271099;22;19995;-77
2023/05/05 02:26:42;;;;;;;3.85;1.50;;;;;;;;;;6270331;22;20053;-77
2023/05/05 02:29:18;;;;;;;4.75;1.77;;;;;;;;;;6270874;22;20015;-77
2023/05/05 02:31:46;;;;;;;4.03;1.58;;;;;;;;;;6243258;22;20341;-78
2023/05/05 02:34:15;;;;;;;3.72;1.88;;;;;;;;;;6243450;22;20375;-78
2023/05/05 02:36:41;;;;;;;5.40;1.90;;;;;;;;;;6242290;22;20003;-77
2023/05/05 02:39:19;;;;;;;4.25;1.80;;;;;;;;;;6270577;22;20310;-77
2023/05/05 02:41:47;;;;;;;5.10;1.80;;;;;;;;;;6270346;22;20158;-77
2023/05/05 02:44:14;;;;;;;4.25;1.75;;;;;;;;;;6270472;22;20602;-77
2023/05/05 02:46:41;;;;;;;5.43;1.80;;;;;;;;;;6269928;22;20079;-78
2023/05/05 02:49:09;;;;;;;4.55;1.95;;;;;;;;;;6270543;22;20079;-77
2023/05/05 02:51:35;;;;;;;3.90;1.60;;;;;;;;;;6269975;22;20004;-77
2023/05/05 02:54:00;;;;;;;3.33;1.58;;;;;;;;;;6270490;22;20617;-77
2023/05/05 02:56:42;;;;;;;4.53;1.90;;;;;;;;;;6242819;22;20542;-77
2023/05/05 02:59:20;;;;;;;6.00;1.60;;;;;;;;;;6270258;22;20007;-77
2023/05/05 03:02:00;;;;;;;4.22;1.73;;;;;;;;;;6269930;22;20012;-77
2023/05/05 03:04:36;;;;;;;6.55;1.95;;;;;;;;;;6270505;22;20000;-78
2023/05/05 03:07:09;;;;;;;5.63;1.70;;;;;;;;;;6269666;22;20039;-77
2023/05/05 03:09:47;;;;;;;4.57;1.60;;;;;;;;;;6270975;22;20004;-77
2023/05/05 03:12:18;;;;;;;4.15;1.85;;;;;;;;;;6270175;22;20004;-77
2023/05/05 03:14:44;;;;;;;4.28;1.70;;;;;;;;;;6242619;22;20015;-77
2023/05/05 03:17:11;;;;;;;4.25;1.55;;;;;;;;;;6242829;22;20027;-77
2023/05/05 03:19:40;;;;;;;5.10;1.65;;;;;;;;;;6270529;22;20078;-77
2023/05/05 03:22:06;;;;;;;5.53;1.50;;;;;;;;;;6269332;22;20006;-78
2023/05/05 03:24:31;;;;;;;3.63;1.75;;;;;;;;;;6270526;22;20000;-77
2023/05/05 03:26:57;;;;;;;2.92;1.50;;;;;;;;;;6269938;22;20015;-77
2023/05/05 03:29:22;;;;;;;5.38;1.80;;;;;;;;;;6270465;22;20011;-77
2023/05/05 03:31:48;;;;;;;2.75;1.50;;;;;;;;;;6270261;22;19999;-77
2023/05/05 03:34:13;;;;;;;3.15;1.70;;;;;;;;;;6270381;22;20000;-77
2023/05/05 03:36:39;;;;;;;4.97;1.50;;;;;;;;;;6269296;22;20000;-78
2023/05/05 03:39:04;;;;;;;2.45;1.40;;;;;;;;;;6243090;22;20008;-78
2023/05/05 03:41:29;;;;;;;4.35;1.55;;;;;;;;;;6269952;22;20026;-78
2023/05/05 03:43:55;;;;;;;4.93;1.75;;;;;;;;;;6270376;22;20011;-78
2023/05/05 03:46:20;;;;;;;3.78;1.58;;;;;;;;;;6269843;22;20462;-78
2023/05/05 03:48:47;;;;;;;4.95;1.65;;;;;;;;;;6270102;22;20003;-78
2023/05/05 03:51:13;;;;;;;3.80;1.60;;;;;;;;;;6242595;22;19995;-78
2023/05/05 03:53:38;;;;;;;4.20;1.60;;;;;;;;;;6269995;22;20093;-78
2023/05/05 03:56:04;;;;;;;4.47;1.60;;;;;;;;;;6243001;22;20114;-77
2023/05/05 03:58:29;;;;;;;5.65;1.98;;;;;;;;;;6271830;22;20004;-77
2023/05/05 04:00:56;;;;;;;3.25;1.50;;;;;;;;;;6271900;22;20629;-78
2023/05/05 04:03:22;;;;;;;4.95;2.20;;;;;;;;;;6244494;22;20000;-78
2023/05/05 04:05:47;;;;;;;5.55;1.60;;;;;;;;;;6271462;22;20000;-78
2023/05/05 04:08:13;;;;;;;4.43;1.70;;;;;;;;;;6271436;22;20000;-78
2023/05/05 04:10:38;;;;;;;4.90;1.77;;;;;;;;;;6244838;22;20011;-77
2023/05/05 04:13:03;;;;;;;6.22;1.77;;;;;;;;;;6271759;22;20157;-78
2023/05/05 04:15:29;;;;;;;3.00;1.60;;;;;;;;;;6272075;22;20026;-78
2023/05/05 04:17:54;;;;;;;3.47;1.65;;;;;;;;;;6271466;22;20079;-78
2023/05/05 04:20:20;;;;;;;4.20;1.70;;;;;;;;;;6271696;22;20069;-78
2023/05/05 04:22:45;;;;;;;5.75;1.98;;;;;;;;;;6270758;22;20006;-78
2023/05/05 04:25:11;;;;;;;4.90;1.90;;;;;;;;;;6271911;22;20031;-78
2023/05/05 04:27:36;;;;;;;9.52;1.98;;;;;;;;;;6271505;22;20003;-77
2023/05/05 04:30:02;;;;;;;3.42;1.60;;;;;;;;;;6271948;22;20343;-77
2023/05/05 04:32:28;;;;;;;5.85;2.00;;;;;;;;;;6271403;22;20007;-77
2023/05/05 04:34:53;;;;;;;4.03;1.90;;;;;;;;;;6272102;22;20008;-77
2023/05/05 04:37:19;;;;;;;6.63;1.90;;;;;;;;;;6243300;22;20019;-77
2023/05/05 04:39:45;;;;;;;4.47;2.33;;;;;;;;;;6271882;22;20394;-77
2023/05/05 04:42:11;;;;;;;4.22;1.50;;;;;;;;;;6271270;22;20014;-77
2023/05/05 04:44:38;;;;;;;3.13;1.73;;;;;;;;;;6271687;22;20000;-77
2023/05/05 04:47:04;;;;;;;5.38;1.95;;;;;;;;;;6271297;22;20023;-77
2023/05/05 04:49:30;;;;;;;5.00;1.98;;;;;;;;;;6272155;22;20100;-78
2023/05/05 04:51:56;;;;;;;3.38;1.95;;;;;;;;;;6270782;22;20004;-77
2023/05/05 04:54:22;;;;;;;4.40;1.80;;;;;;;;;;6271470;22;20543;-77
2023/05/05 04:56:47;;;;;;;5.32;2.03;;;;;;;;;;6271054;22;20000;-77
2023/05/05 04:59:14;;;;;;;3.83;1.70;;;;;;;;;;6271712;22;20494;-78
2023/05/05 05:01:40;;;;;;;6.22;1.80;;;;;;;;;;6271560;22;20087;-77
2023/05/05 05:04:09;;;;;;;3.88;1.77;;;;;;;;;;6271234;22;20031;-78
2023/05/05 05:06:35;;;;;;;5.55;1.90;;;;;;;;;;6271039;22;20382;-77
2023/05/05 05:09:00;;;;;;;5.63;1.70;;;;;;;;;;6270820;22;20442;-77
2023/05/05 05:11:26;;;;;;;5.50;1.90;;;;;;;;;;6244197;22;20003;-77
2023/05/05 05:13:51;;;;;;;4.75;1.80;;;;;;;;;;6271157;22;19996;-77
2023/05/05 05:16:17;;;;;;;4.97;1.90;;;;;;;;;;6271499;22;20004;-77
2023/05/05 05:18:43;;;;;;;3.97;2.10;;;;;;;;;;6270840;22;20336;-78
2023/05/05 05:21:09;;;;;;;4.38;2.00;;;;;;;;;;6270636;22;20064;-77
2023/05/05 05:23:34;;;;;;;5.38;2.13;;;;;;;;;;6270971;22;20348;-77
2023/05/05 05:25:59;;;;;;;4.25;2.30;;;;;;;;;;6244146;22;20023;-77
2023/05/05 05:28:25;;;;;;;5.45;2.10;;;;;;;;;;6270651;22;19999;-78
2023/05/05 05:30:51;;;;;;;5.25;1.83;;;;;;;;;;6271217;22;19999;-77
2023/05/05 05:33:16;;;;;;;5.82;2.13;;;;;;;;;;6270758;22;20030;-77
2023/05/05 05:35:42;;;;;;;5.97;1.95;;;;;;;;;;6271244;22;20004;-78
2023/05/05 05:38:07;;;;;;;5.85;1.90;;;;;;;;;;6270006;22;20020;-77
2023/05/05 05:40:32;;;;;;;7.97;2.60;;;;;;;;;;6271061;22;20007;-78
2023/05/05 05:42:58;;;;;;;4.07;2.22;;;;;;;;;;6270766;22;20106;-77
2023/05/05 05:45:23;;;;;;;6.68;1.80;;;;;;;;;;6271086;22;20321;-77
2023/05/05 05:47:49;;;;;;;4.88;1.90;;;;;;;;;;6270778;22;20007;-77
2023/05/05 05:50:14;;;;;;;7.75;2.10;;;;;;;;;;6271059;22;20008;-77
2023/05/05 05:52:39;;;;;;;5.88;2.03;;;;;;;;;;6270233;22;19999;-79
2023/05/05 05:55:06;;;;;;;7.35;2.00;;;;;;;;;;6270922;22;20046;-79
2023/05/05 05:57:31;;;;;;;5.53;2.10;;;;;;;;;;6270846;22;20006;-78
2023/05/05 05:59:57;;;;;;;5.45;1.90;;;;;;;;;;6270786;22;19996;-78
2023/05/05 06:02:22;;;;;;;4.10;1.90;;;;;;;;;;6271136;22;20014;-79
2023/05/05 06:04:48;;;;;;;8.27;1.95;;;;;;;;;;6270642;22;20011;-78
2023/05/05 06:07:13;;;;;;;6.72;2.20;;;;;;;;;;6270120;22;20048;-78
2023/05/05 06:09:39;;;;;;;6.20;1.80;;;;;;;;;;6270818;22;19999;-78
2023/05/05 06:12:04;;;;;;;7.05;1.90;;;;;;;;;;6270761;22;20436;-78
2023/05/05 06:14:30;;;;;;;4.35;1.80;;;;;;;;;;6270703;22;20029;-79
2023/05/05 06:16:55;;;;;;;4.97;1.90;;;;;;;;;;6271019;22;20061;-78
2023/05/05 06:19:21;;;;;;;4.30;2.05;;;;;;;;;;6270577;22;20011;-79
2023/05/05 06:21:49;;;;;;;4.03;1.90;;;;;;;;;;6243123;22;20011;-78
2023/05/05 06:24:15;;;;;;;4.63;1.98;;;;;;;;;;6243263;22;20008;-78
2023/05/05 06:26:40;;;;;;;6.25;2.08;;;;;;;;;;6271136;22;20004;-79
2023/05/05 06:29:06;;;;;;;4.05;1.90;;;;;;;;;;6270304;22;20427;-78
2023/05/05 06:31:31;;;;;;;3.28;1.60;;;;;;;;;;6270796;22;20004;-78
2023/05/05 06:33:57;;;;;;;3.85;1.85;;;;;;;;;;6270417;22;20003;-78
2023/05/05 06:36:22;;;;;;;5.32;1.83;;;;;;;;;;6270422;22;20455;-79
2023/05/05 06:38:49;;;;;;;2.95;1.90;;;;;;;;;;6270127;22;20012;-78
2023/05/05 06:41:14;;;;;;;5.03;1.80;;;;;;;;;;6270528;22;20004;-79
2023/05/05 06:43:43;;;;;;;7.70;1.95;;;;;;;;;;6270447;22;20000;-79
2023/05/05 06:46:08;;;;;;;6.18;1.70;;;;;;;;;;6270645;22;20000;-79
2023/05/05 06:48:33;;;;;;;6.45;1.75;;;;;;;;;;6270072;22;20000;-78
2023/05/05 06:50:59;;;;;;;3.63;1.67;;;;;;;;;;6270346;22;19999;-79
2023/05/05 06:53:24;;;;;;;3.65;1.67;;;;;;;;;;6270025;22;20052;-78
2023/05/05 06:55:50;;;;;;;4.10;1.70;;;;;;;;;;6270879;22;20181;-78
2023/05/05 06:58:15;;;;;;;4.13;1.60;;;;;;;;;;6242956;22;20064;-78
2023/05/05 07:00:41;;;;;;;3.15;1.50;;;;;;;;;;6270516;22;20037;-78
2023/05/05 07:03:07;;;;;;;2.83;1.42;;;;;;;;;;6270308;22;20000;-78
2023/05/05 07:05:32;;;;;;;5.95;1.80;;;;;;;;;;6270270;22;20433;-78
2023/05/05 07:08:03;;;;;;;4.03;1.45;;;;;;;;;;6269784;22;20018;-78
2023/05/05 07:10:28;;;;;;;5.57;1.58;;;;;;;;;;6270071;22;20067;-78
2023/05/05 07:12:54;;;;;;;4.38;1.50;;;;;;;;;;6243349;22;20027;-78
2023/05/05 07:15:23;;;;;;;4.78;1.58;;;;;;;;;;6270189;22;20007;-78
2023/05/05 07:17:48;;;;;;;6.50;1.40;;;;;;;;;;6270149;22;20000;-79
2023/05/05 07:20:17;;;;;;;6.30;1.35;;;;;;;;;;6269783;22;20011;-78
2023/05/05 07:22:42;;;;;;;3.97;1.55;;;;;;;;;;6269660;22;20493;-78
2023/05/05 07:25:08;;;;;;;2.13;1.25;;;;;;;;;;6270272;22;20035;-78
2023/05/05 07:27:34;;;;;;;3.40;1.30;;;;;;;;;;6270603;22;20363;-78
2023/05/05 07:30:00;;;;;;;3.47;1.75;;;;;;;;;;6269935;22;20007;-77
2023/05/05 07:32:25;;;;;;;6.18;1.60;;;;;;;;;;6243367;22;20008;-77
2023/05/05 07:34:51;;;;;;;5.97;1.50;;;;;;;;;;6272338;22;20150;-76
2023/05/05 07:37:19;;;;;;;2.83;1.38;;;;;;;;;;6244456;22;20015;-77
2023/05/05 07:39:47;;;;;;;4.03;1.55;;;;;;;;;;6271721;22;20007;-76
2023/05/05 07:42:13;;;;;;;5.18;1.50;;;;;;;;;;6272341;22;20004;-76
2023/05/05 07:44:38;;;;;;;4.70;1.50;;;;;;;;;;6272054;22;20004;-76
2023/05/05 07:47:04;;;;;;;3.58;1.50;;;;;;;;;;6272298;22;20554;-77
2023/05/05 07:49:29;;;;;;;2.67;1.50;;;;;;;;;;6272110;22;20000;-76
2023/05/05 07:51:55;;;;;;;2.67;1.30;;;;;;;;;;6270956;22;20015;-77
2023/05/05 07:54:20;;;;;;;3.65;1.30;;;;;;;;;;6271786;22;20006;-76
2023/05/05 07:56:46;;;;;;;3.05;1.52;;;;;;;;;;6271927;22;20028;-76
2023/05/05 07:59:12;;;;;;;4.10;1.70;;;;;;;;;;6271635;22;20473;-77
2023/05/05 08:01:38;;;;;;;2.97;1.60;;;;;;;;;;6272236;22;20007;-77
2023/05/05 08:04:04;;;;;;;3.85;1.65;;;;;;;;;;6244607;22;20011;-77
2023/05/05 08:06:30;;;;;;;2.85;1.60;;;;;;;;;;6271965;22;20000;-76
2023/05/05 08:08:56;;;;;;;5.13;1.73;;;;;;;;;;6271811;22;20004;-77
2023/05/05 08:11:21;;;;;;;6.45;1.50;;;;;;;;;;6271787;22;20004;-77
2023/05/05 08:13:47;;;;;;;3.20;1.73;;;;;;;;;;6271544;22;19996;-77
2023/05/05 08:16:13;;;;;;;4.13;1.70;;;;;;;;;;6271560;22;20004;-77
2023/05/05 08:18:39;;;;;;;4.68;1.98;;;;;;;;;;6271737;22;20321;-76
2023/05/05 08:21:06;;;;;;;3.38;1.70;;;;;;;;;;6270800;22;20004;-77
2023/05/05 08:23:32;;;;;;;4.45;2.03;;;;;;;;;;6271869;22;20464;-77
2023/05/05 08:25:58;;;;;;;3.40;1.58;;;;;;;;;;6271839;22;20004;-77
2023/05/05 08:28:23;;;;;;;3.75;1.50;;;;;;;;;;6271368;22;20079;-79
2023/05/05 08:30:49;;;;;;;6.95;2.00;;;;;;;;;;6244262;22;20058;-77
2023/05/05 08:33:15;;;;;;;3.55;1.90;;;;;;;;;;6272429;22;20078;-79
2023/05/05 08:35:41;;;;;;;5.85;2.08;;;;;;;;;;6244508;22;20038;-77
2023/05/05 08:38:07;;;;;;;4.07;2.08;;;;;;;;;;6270997;22;20440;-77
2023/05/05 08:40:33;;;;;;;4.18;2.00;;;;;;;;;;6271309;22;19999;-78
2023/05/05 08:43:00;;;;;;;4.50;1.90;;;;;;;;;;6244466;22;20463;-78
2023/05/05 08:45:27;;;;;;;3.92;1.85;;;;;;;;;;6270891;22;20600;-78
2023/05/05 08:47:55;;;;;;;3.15;1.70;;;;;;;;;;6244681;22;20014;-78
2023/05/05 08:50:24;;;;;;;3.88;1.70;;;;;;;;;;6271202;22;19999;-79
2023/05/05 08:53:07;;;;;;;2.22;1.50;;;;;;;;;;6271205;22;20004;-79
2023/05/05 08:55:44;;;;;;;5.32;1.90;;;;;;;;;;6271285;22;20472;-78
2023/05/05 08:58:09;;;;;;;4.85;2.00;;;;;;;;;;6271566;22;20083;-78
2023/05/05 09:00:35;;;;;;;4.65;1.80;;;;;;;;;;6271043;22;20569;-77
2023/05/05 09:03:01;;;;;;;3.80;2.20;;;;;;;;;;6271633;22;20023;-77
2023/05/05 09:05:26;;;;;;;6.85;1.67;;;;;;;;;;6271290;22;20000;-78
2023/05/05 09:07:52;;;;;;;3.35;1.98;;;;;;;;;;6270941;22;19996;-77
2023/05/05 09:10:18;;;;;;;5.30;1.85;;;;;;;;;;6271138;22;20007;-80
2023/05/05 09:12:43;;;;;;;4.50;2.00;;;;;;;;;;6271596;22;20006;-78
2023/05/05 09:15:13;;;;;;;4.80;2.05;;;;;;;;;;6271109;22;20034;-77
2023/05/05 09:17:39;;;;;;;4.18;1.95;;;;;;;;;;6271681;22;20003;-77
2023/05/05 09:20:10;;;;;;;4.05;2.10;;;;;;;;;;6243278;22;20158;-77
2023/05/05 09:22:43;;;;;;;3.47;1.90;;;;;;;;;;6270847;22;20010;-77
2023/05/05 09:25:11;;;;;;;5.75;2.30;;;;;;;;;;6271121;22;20008;-76
2023/05/05 09:27:39;;;;;;;4.13;2.25;;;;;;;;;;6271317;22;20106;-77
2023/05/05 09:30:09;;;;;;;4.30;2.08;;;;;;;;;;6270615;22;20014;-77
2023/05/05 09:32:44;;;;;;;4.30;2.00;;;;;;;;;;6271476;22;19999;-76
2023/05/05 09:35:10;;;;;;;6.80;2.40;;;;;;;;;;6271100;22;20003;-77
2023/05/05 09:37:36;;;;;;;3.95;2.00;;;;;;;;;;6270514;22;20083;-76
2023/05/05 09:40:01;;;;;;;3.03;2.00;;;;;;;;;;6243941;22;20739;-77
2023/05/05 09:42:27;;;;;;;3.78;2.00;;;;;;;;;;6271071;22;20601;-76
2023/05/05 09:44:53;;;;;;;3.65;2.10;;;;;;;;;;6243682;22;20008;-77
2023/05/05 09:47:19;;;;;;;5.38;2.33;;;;;;;;;;6243958;22;20077;-77
2023/05/05 09:49:44;;;;;;;5.18;1.90;;;;;;;;;;6270574;22;20003;-77
2023/05/05 09:52:16;;;;;;;3.92;2.00;;;;;;;;;;6270281;22;20022;-77
2023/05/05 09:54:42;;;;;;;4.50;1.92;;;;;;;;;;6270878;22;20007;-77
2023/05/05 09:57:23;;;;;;;5.57;2.22;;;;;;;;;;6270667;22;20035;-77
2023/05/05 10:00:00;;;;;;;3.10;1.90;;;;;;;;;;6270626;22;20432;-77
2023/05/05 10:02:36;;;;;;;5.03;2.05;;;;;;;;;;6270771;22;20616;-77
2023/05/05 10:05:16;;;;;;;5.13;2.20;;;;;;;;;;6243594;22;20004;-77
2023/05/05 10:07:44;;;;;;;3.63;1.90;;;;;;;;;;6270406;22;20000;-77
2023/05/05 10:10:15;;;;;;;3.63;1.80;;;;;;;;;;6270709;22;20031;-76
2023/05/05 10:12:41;;;;;;;4.40;2.10;;;;;;;;;;6270882;22;20483;-77
2023/05/05 10:15:14;;;;;;;4.35;2.10;;;;;;;;;;6270611;22;20007;-77
2023/05/05 10:17:46;;;;;;;3.80;2.00;;;;;;;;;;6270555;22;20448;-77
2023/05/05 10:20:12;;;;;;;5.13;2.10;;;;;;;;;;6270347;22;20010;-77
2023/05/05 10:22:41;;;;;;;8.07;2.05;;;;;;;;;;6270086;22;20010;-77
2023/05/05 10:25:14;;;;;;;4.35;2.00;;;;;;;;;;6270678;22;20004;-77
2023/05/05 10:27:46;;;;;;;5.47;2.15;;;;;;;;;;6270705;22;20011;-77
2023/05/05 10:30:31;;;;;;;4.78;2.17;;;;;;;;;;6270487;22;20004;-77
2023/05/05 10:33:01;;;;;;;4.50;2.00;;;;;;;;;;6243465;22;20378;-78
2023/05/05 10:35:31;;;;;;;4.18;2.08;;;;;;;;;;6270653;22;20011;-76
2023/05/05 10:37:58;;;;;;;3.60;2.00;;;;;;;;;;6269778;22;20034;-77
2023/05/05 10:40:24;;;;;;;3.92;2.20;;;;;;;;;;6270339;22;20331;-77
2023/05/05 10:42:52;;;;;;;6.65;2.00;;;;;;;;;;6270576;22;20008;-77
2023/05/05 10:45:21;;;;;;;3.97;2.10;;;;;;;;;;6271212;22;19999;-77
2023/05/05 10:47:48;;;;;;;3.83;2.00;;;;;;;;;;6271337;22;20002;-77
2023/05/05 10:50:27;;;;;;;7.53;1.90;;;;;;;;;;6271197;22;20008;-78
2023/05/05 10:53:15;;;;;;;7.10;2.20;;;;;;;;;;6269866;22;20060;-79
2023/05/05 10:55:48;;;;;;;4.68;2.20;;;;;;;;;;6270664;22;20003;-77
2023/05/05 10:58:43;;;;;;;5.63;2.00;;;;;;;;;;6243954;22;20031;-77
2023/05/05 11:01:08;;;;;;;4.75;2.05;;;;;;;;;;6269880;22;20070;-77
2023/05/05 11:03:34;;;;;;;4.63;2.20;;;;;;;;;;6270961;22;20004;-78
2023/05/05 11:06:03;;;;;;;3.38;2.10;;;;;;;;;;6242757;22;20039;-78
2023/05/05 11:08:32;;;;;;;3.85;1.95;;;;;;;;;;6272029;22;20134;-79
2023/05/05 11:10:58;;;;;;;3.50;2.20;;;;;;;;;;6272233;22;20294;-78
2023/05/05 11:13:24;;;;;;;3.17;1.90;;;;;;;;;;6272419;22;20394;-78
2023/05/05 11:15:54;;;;;;;4.45;1.80;;;;;;;;;;6245429;22;20483;-78
2023/05/05 11:18:43;;;;;;;4.85;2.17;;;;;;;;;;6272486;22;20008;-77
2023/05/05 11:21:16;;;;;;;4.28;2.03;;;;;;;;;;6255167;22;20313;-78
2023/05/05 11:23:49;;;;;;;2.80;1.88;;;;;;;;;;6272554;22;19999;-78
2023/05/05 11:26:16;;;;;;;6.32;2.30;;;;;;;;;;6272267;22;20095;-78
2023/05/05 11:28:55;;;;;;;4.55;2.08;;;;;;;;;;6272236;22;20000;-77
2023/05/05 11:31:20;;;;;;;6.18;1.90;;;;;;;;;;6272230;22;20008;-78
2023/05/05 11:33:46;;;;;;;4.07;2.17;;;;;;;;;;6272330;22;20444;-78
2023/05/05 11:36:14;;;;;;;3.65;1.70;;;;;;;;;;6271874;22;20083;-78
2023/05/05 11:39:01;;;;;;;4.70;1.80;;;;;;;;;;6272009;22;20178;-77
2023/05/05 11:41:32;;;;;;;4.03;1.73;;;;;;;;;;6272061;22;20007;-77
2023/05/05 11:44:10;;;;;;;4.03;1.90;;;;;;;;;;6272801;22;20007;-78
2023/05/05 11:46:37;;;;;;;3.53;1.70;;;;;;;;;;6271862;22;20450;-77
2023/05/05 11:49:03;;;;;;;4.47;1.90;;;;;;;;;;6272254;22;20004;-78
2023/05/05 11:51:29;;;;;;;3.35;1.70;;;;;;;;;;6271597;22;20099;-78
2023/05/05 11:53:55;;;;;;;5.20;2.00;;;;;;;;;;6244875;22;20008;-78
2023/05/05 11:56:21;;;;;;;5.75;2.10;;;;;;;;;;6271958;22;20056;-77
2023/05/05 11:58:47;;;;;;;4.32;1.70;;;;;;;;;;6272193;22;20015;-78
2023/05/05 12:01:14;;;;;;;4.57;1.80;;;;;;;;;;6272142;22;20003;-77
2023/05/05 12:03:39;;;;;;;3.45;1.65;;;;;;;;;;6271818;22;20008;-78
2023/05/05 12:06:07;;;;;;;5.72;2.10;;;;;;;;;;6271791;22;20348;-78
2023/05/05 12:08:39;;;;;;;3.88;1.92;;;;;;;;;;6271692;22;20418;-77
2023/05/05 12:11:09;;;;;;;4.80;1.80;;;;;;;;;;6272047;22;20457;-78
2023/05/05 12:13:35;;;;;;;4.70;1.92;;;;;;;;;;6271828;22;19999;-78
2023/05/05 12:16:14;;;;;;;4.63;1.80;;;;;;;;;;6244533;22;20015;-77
2023/05/05 12:18:41;;;;;;;2.50;1.80;;;;;;;;;;6271452;22;20432;-78
2023/05/05 12:21:26;;;;;;;3.80;1.90;;;;;;;;;;6271076;22;20011;-78
2023/05/05 12:23:52;;;;;;;5.38;2.10;;;;;;;;;;6270597;22;20008;-78
2023/05/05 12:26:25;;;;;;;3.80;1.70;;;;;;;;;;6271998;22;20006;-78
2023/05/05 12:28:50;;;;;;;5.43;1.90;;;;;;;;;;6271711;22;20560;-79
2023/05/05 12:31:16;;;;;;;4.47;1.98;;;;;;;;;;6271791;22;20083;-78
2023/05/05 12:33:42;;;;;;;5.95;1.88;;;;;;;;;;6271279;22;20424;-78
2023/05/05 12:36:08;;;;;;;3.30;1.83;;;;;;;;;;6271351;22;20003;-78
2023/05/05 12:38:36;;;;;;;5.72;1.92;;;;;;;;;;6270978;22;20466;-77
2023/05/05 12:41:02;;;;;;;7.30;1.90;;;;;;;;;;6271447;22;20003;-78
2023/05/05 12:43:30;;;;;;;3.10;1.90;;;;;;;;;;6271381;22;20007;-77
2023/05/05 12:46:05;;;;;;;5.60;1.95;;;;;;;;;;6271513;22;20023;-78
2023/05/05 12:48:31;;;;;;;5.20;2.03;;;;;;;;;;6271337;22;20432;-78
2023/05/05 12:51:18;;;;;;;4.28;1.90;;;;;;;;;;6271110;22;20008;-78
2023/05/05 12:53:48;;;;;;;4.20;1.85;;;;;;;;;;6271312;22;20035;-77
2023/05/05 12:56:33;;;;;;;4.25;1.98;;;;;;;;;;6271526;22;20038;-78
2023/05/05 12:58:59;;;;;;;4.65;1.92;;;;;;;;;;6271384;22;20004;-77
2023/05/05 13:01:25;;;;;;;6.50;2.00;;;;;;;;;;6271214;22;20075;-76
2023/05/05 13:04:09;;;;;;;5.18;2.00;;;;;;;;;;6271324;22;20062;-77
2023/05/05 13:06:36;;;;;;;4.35;1.83;;;;;;;;;;6271340;22;20352;-77
2023/05/05 13:09:02;;;;;;;3.55;1.88;;;;;;;;;;6271126;22;20011;-77
2023/05/05 13:11:28;;;;;;;3.45;2.10;;;;;;;;;;6271436;22;20488;-77
2023/05/05 13:13:53;;;;;;;4.63;1.83;;;;;;;;;;6271182;22;20027;-77
2023/05/05 13:16:19;;;;;;;6.28;2.00;;;;;;;;;;6271411;22;20011;-77
2023/05/05 13:18:45;;;;;;;4.28;1.90;;;;;;;;;;6271347;22;20002;-77
2023/05/05 13:21:11;;;;;;;4.55;1.90;;;;;;;;;;6270758;22;20004;-77
2023/05/05 13:23:45;;;;;;;3.30;1.77;;;;;;;;;;6271226;22;20014;-77
2023/05/05 13:26:12;;;;;;;7.60;1.75;;;;;;;;;;6271046;22;20501;-77
2023/05/05 13:28:38;;;;;;;5.75;2.08;;;;;;;;;;6270973;22;20075;-77
2023/05/05 13:31:03;;;;;;;5.00;1.98;;;;;;;;;;6243565;22;20008;-78
2023/05/05 13:33:32;;;;;;;4.80;1.85;;;;;;;;;;6270706;22;20010;-77
2023/05/05 13:36:05;;;;;;;5.35;2.10;;;;;;;;;;6270915;22;20505;-77
2023/05/05 13:38:31;;;;;;;4.63;2.00;;;;;;;;;;6270718;22;20451;-79
2023/05/05 13:40:58;;;;;;;3.47;1.75;;;;;;;;;;6271005;22;20046;-78
2023/05/05 13:43:23;;;;;;;5.70;1.80;;;;;;;;;;6270618;22;20007;-78
2023/05/05 13:45:49;;;;;;;4.57;1.90;;;;;;;;;;6271166;22;20000;-77
2023/05/05 13:48:14;;;;;;;5.03;1.85;;;;;;;;;;6270853;22;20321;-77
2023/05/05 13:50:40;;;;;;;8.05;2.10;;;;;;;;;;6270426;22;20356;-77
2023/05/05 13:53:05;;;;;;;4.28;1.98;;;;;;;;;;6243321;22;20008;-78
2023/05/05 13:55:30;;;;;;;5.03;1.92;;;;;;;;;;6271060;22;20000;-78
2023/05/05 13:57:56;;;;;;;3.53;1.77;;;;;;;;;;6270827;22;20026;-78
2023/05/05 14:00:21;;;;;;;3.75;1.80;;;;;;;;;;6270888;22;20047;-77
2023/05/05 14:02:47;;;;;;;4.60;1.90;;;;;;;;;;6270733;22;20085;-77
2023/05/05 14:05:13;;;;;;;5.70;1.70;;;;;;;;;;6270761;22;20402;-78
2023/05/05 14:07:38;;;;;;;4.32;1.67;;;;;;;;;;6270252;22;20428;-78
2023/05/05 14:10:05;;;;;;;3.63;1.70;;;;;;;;;;6270541;22;20000;-78
2023/05/05 14:12:31;;;;;;;5.60;1.85;;;;;;;;;;6270794;22;20042;-78
2023/05/05 14:14:57;;;;;;;4.15;1.90;;;;;;;;;;6243420;22;20460;-77
2023/05/05 14:17:23;;;;;;;7.28;1.80;;;;;;;;;;6270888;22;20015;-77
2023/05/05 14:19:48;;;;;;;4.85;1.80;;;;;;;;;;6270556;22;20007;-77
2023/05/05 14:22:13;;;;;;;6.50;1.77;;;;;;;;;;6269893;22;20072;-77
2023/05/05 14:24:39;;;;;;;4.60;1.52;;;;;;;;;;6243024;22;20031;-77
2023/05/05 14:27:04;;;;;;;4.82;1.92;;;;;;;;;;6270786;22;20075;-77
2023/05/05 14:29:30;;;;;;;5.55;2.05;;;;;;;;;;6243342;22;20004;-77
2023/05/05 14:31:55;;;;;;;4.25;1.90;;;;;;;;;;6270700;22;20006;-77
2023/05/05 14:34:23;;;;;;;4.85;1.90;;;;;;;;;;6270252;22;20002;-78
2023/05/05 14:36:48;;;;;;;5.07;1.88;;;;;;;;;;6270088;22;20313;-77
2023/05/05 14:39:13;;;;;;;3.92;1.60;;;;;;;;;;6270428;22;20006;-77
2023/05/05 14:41:39;;;;;;;4.72;1.85;;;;;;;;;;6243005;22;20039;-78
2023/05/05 14:44:04;;;;;;;4.45;1.92;;;;;;;;;;6270185;22;20025;-77
2023/05/05 14:46:30;;;;;;;8.02;1.92;;;;;;;;;;6243391;22;20069;-78
2023/05/05 14:48:55;;;;;;;5.85;2.00;;;;;;;;;;6270263;22;20039;-77